Time;durP1;ratioP1;P1;durP2;ratioP2;P2;SDS_P1;SDS_P2;PMS_P1;PMS_P2;Temp;Humidity;BMP_temperature;BMP_pressure;BME280_temperature;BME280_humidity;BME280_pressure;Samples;Min_cycle;Max_cycle;Signal;HPM_P1;HPM_P2
2022/04/17 00:00:48;;;;;;;8.20;3.22;;;;;;;;;;5117223;27;20694;-15
2022/04/17 00:03:15;;;;;;;11.90;2.90;;;;;;;;;;5121263;27;20235;-15
2022/04/17 00:05:44;;;;;;;10.10;2.40;;;;;;;;;;5121614;27;21131;-14
2022/04/17 00:08:11;;;;;;;13.38;2.60;;;;;;;;;;5120925;27;20224;-15
2022/04/17 00:10:39;;;;;;;5.72;2.63;;;;;;;;;;5124051;27;20609;-15
2022/04/17 00:13:06;;;;;;;4.63;2.65;;;;;;;;;;5122632;27;20252;-15
2022/04/17 00:15:33;;;;;;;7.32;2.95;;;;;;;;;;5121167;27;20220;-15
2022/04/17 00:18:01;;;;;;;6.03;3.38;;;;;;;;;;5123653;27;20257;-15
2022/04/17 00:20:28;;;;;;;8.65;2.65;;;;;;;;;;5120505;27;20232;-16
2022/04/17 00:22:57;;;;;;;6.82;2.95;;;;;;;;;;5124210;27;20767;-15
2022/04/17 00:25:24;;;;;;;3.35;2.60;;;;;;;;;;5118994;27;20236;-15
2022/04/17 00:27:51;;;;;;;7.72;2.92;;;;;;;;;;5124779;27;20238;-14
2022/04/17 00:30:18;;;;;;;9.15;2.65;;;;;;;;;;5117502;27;20220;-14
2022/04/17 00:32:46;;;;;;;4.80;2.60;;;;;;;;;;5120954;27;20309;-15
2022/04/17 00:35:13;;;;;;;4.20;2.53;;;;;;;;;;5122181;27;20223;-15
2022/04/17 00:37:40;;;;;;;5.10;2.40;;;;;;;;;;5121875;27;20238;-15
2022/04/17 00:40:09;;;;;;;3.55;2.47;;;;;;;;;;5124288;27;20238;-15
2022/04/17 00:42:40;;;;;;;4.97;2.78;;;;;;;;;;5122970;27;20224;-15
2022/04/17 00:45:08;;;;;;;4.50;2.83;;;;;;;;;;5121832;27;20235;-15
2022/04/17 00:47:35;;;;;;;3.55;2.58;;;;;;;;;;5117578;27;20235;-15
2022/04/17 00:50:04;;;;;;;5.55;2.72;;;;;;;;;;5122402;27;20225;-15
2022/04/17 00:52:31;;;;;;;9.88;2.78;;;;;;;;;;5121771;27;20258;-15
2022/04/17 00:55:01;;;;;;;3.78;2.40;;;;;;;;;;5123356;27;20572;-15
2022/04/17 00:57:30;;;;;;;3.97;2.50;;;;;;;;;;5119223;27;20238;-15
2022/04/17 00:59:57;;;;;;;3.67;2.67;;;;;;;;;;5116484;27;20232;-15
2022/04/17 01:02:24;;;;;;;3.22;2.40;;;;;;;;;;5122883;27;20706;-15
2022/04/17 01:04:52;;;;;;;3.50;2.60;;;;;;;;;;5116377;27;20239;-13
2022/04/17 01:07:21;;;;;;;6.85;2.70;;;;;;;;;;5114475;27;20228;-14
2022/04/17 01:09:48;;;;;;;3.50;2.50;;;;;;;;;;5114311;27;20220;-15
2022/04/17 01:12:17;;;;;;;3.92;2.60;;;;;;;;;;5115182;27;20227;-15
2022/04/17 01:14:46;;;;;;;3.53;2.53;;;;;;;;;;5119620;27;20250;-16
2022/04/17 01:17:13;;;;;;;3.78;2.45;;;;;;;;;;5119520;27;20236;-15
2022/04/17 01:19:41;;;;;;;4.90;2.50;;;;;;;;;;5121396;27;20239;-15
2022/04/17 01:22:10;;;;;;;4.75;2.83;;;;;;;;;;5121598;27;20983;-15
2022/04/17 01:27:23;;;;;;;3.28;2.35;;;;;;;;;;5117368;27;20232;-15
2022/04/17 01:29:51;;;;;;;2.65;2.05;;;;;;;;;;5124051;27;20305;-15
2022/04/17 01:32:18;;;;;;;4.38;2.40;;;;;;;;;;5118092;27;20326;-15
2022/04/17 01:34:46;;;;;;;4.07;2.53;;;;;;;;;;5119627;27;20247;-15
2022/04/17 01:37:14;;;;;;;3.63;2.75;;;;;;;;;;5120004;27;20234;-15
2022/04/17 01:39:42;;;;;;;3.58;2.50;;;;;;;;;;5123075;27;20232;-15
2022/04/17 01:42:11;;;;;;;2.72;2.20;;;;;;;;;;5121130;27;20228;-15
2022/04/17 01:44:38;;;;;;;3.78;2.40;;;;;;;;;;5122488;27;20967;-15
2022/04/17 01:47:05;;;;;;;3.50;2.22;;;;;;;;;;5118111;27;20237;-15
2022/04/17 01:49:33;;;;;;;4.05;2.33;;;;;;;;;;5121959;27;20568;-16
2022/04/17 01:52:00;;;;;;;3.70;2.72;;;;;;;;;;5119602;27;20242;-14
2022/04/17 01:54:29;;;;;;;4.30;2.45;;;;;;;;;;5126399;27;20235;-15
2022/04/17 01:56:56;;;;;;;3.33;2.40;;;;;;;;;;5124302;27;20232;-15
2022/04/17 01:59:24;;;;;;;2.28;2.00;;;;;;;;;;5121665;27;20277;-16
2022/04/17 02:01:52;;;;;;;4.45;2.40;;;;;;;;;;5122657;27;20250;-16
2022/04/17 02:04:19;;;;;;;2.95;2.28;;;;;;;;;;5119512;27;20316;-16
2022/04/17 02:06:47;;;;;;;2.45;2.08;;;;;;;;;;5119157;27;20225;-15
2022/04/17 02:09:15;;;;;;;3.15;2.20;;;;;;;;;;5121205;27;20601;-16
2022/04/17 02:11:45;;;;;;;3.50;2.47;;;;;;;;;;5126070;27;20310;-15
2022/04/17 02:14:12;;;;;;;2.95;2.45;;;;;;;;;;5123926;27;20243;-15
2022/04/17 02:16:40;;;;;;;3.55;2.60;;;;;;;;;;5123462;27;20240;-15
2022/04/17 02:19:07;;;;;;;5.85;2.78;;;;;;;;;;5124209;27;20232;-15
2022/04/17 02:21:34;;;;;;;4.40;2.47;;;;;;;;;;5112082;22;20241;-16
2022/04/17 02:24:02;;;;;;;5.80;2.40;;;;;;;;;;5070565;28;20255;-15
2022/04/17 02:26:30;;;;;;;3.50;2.60;;;;;;;;;;5064864;28;20225;-16
2022/04/17 02:28:59;;;;;;;4.68;2.40;;;;;;;;;;5061394;28;20238;-16
2022/04/17 02:31:26;;;;;;;3.78;2.70;;;;;;;;;;5067268;28;20705;-15
2022/04/17 02:33:54;;;;;;;5.50;2.33;;;;;;;;;;5061316;28;20329;-15
2022/04/17 02:36:21;;;;;;;3.15;2.30;;;;;;;;;;5063529;28;20267;-15
2022/04/17 02:38:49;;;;;;;7.68;2.33;;;;;;;;;;5063191;28;20233;-15
2022/04/17 02:41:16;;;;;;;3.22;2.35;;;;;;;;;;5060769;28;20752;-15
2022/04/17 02:43:43;;;;;;;3.25;1.90;;;;;;;;;;5065642;28;20238;-15
2022/04/17 02:46:12;;;;;;;3.75;2.40;;;;;;;;;;5068386;28;20234;-15
2022/04/17 02:48:39;;;;;;;3.58;2.30;;;;;;;;;;5062220;28;20685;-16
2022/04/17 02:51:07;;;;;;;3.05;2.08;;;;;;;;;;5063901;28;20230;-16
2022/04/17 02:53:35;;;;;;;3.05;2.35;;;;;;;;;;5062290;28;20730;-15
2022/04/17 02:56:02;;;;;;;3.83;2.60;;;;;;;;;;5065790;28;20237;-16
2022/04/17 02:58:29;;;;;;;3.30;2.35;;;;;;;;;;5062868;28;20234;-16
2022/04/17 03:06:28;;;;;;;4.85;2.83;;;;;;;;;;5062064;28;20230;-16
2022/04/17 03:08:55;;;;;;;5.07;2.53;;;;;;;;;;5064885;28;20234;-15
2022/04/17 03:11:22;;;;;;;3.30;2.55;;;;;;;;;;5061861;28;20236;-16
2022/04/17 03:13:52;;;;;;;4.75;2.33;;;;;;;;;;5064118;28;20229;-15
2022/04/17 03:16:19;;;;;;;3.47;2.17;;;;;;;;;;5065347;28;20222;-16
2022/04/17 03:18:49;;;;;;;2.83;2.20;;;;;;;;;;5064631;28;20240;-16
2022/04/17 03:21:16;;;;;;;2.78;2.10;;;;;;;;;;5060740;28;20253;-15
2022/04/17 03:23:43;;;;;;;2.40;2.00;;;;;;;;;;5064083;28;20226;-16
2022/04/17 03:26:11;;;;;;;3.47;2.58;;;;;;;;;;5061753;28;20242;-16
2022/04/17 03:28:38;;;;;;;2.85;2.05;;;;;;;;;;5063505;28;20215;-15
2022/04/17 03:31:05;;;;;;;3.60;2.20;;;;;;;;;;5062425;28;20233;-16
2022/04/17 03:33:33;;;;;;;5.43;2.63;;;;;;;;;;5062791;28;20261;-15
2022/04/17 03:36:01;;;;;;;2.67;2.15;;;;;;;;;;5063210;28;20229;-15
2022/04/17 03:38:29;;;;;;;2.72;2.17;;;;;;;;;;5059756;28;20233;-15
2022/04/17 03:40:56;;;;;;;3.03;2.50;;;;;;;;;;5061630;28;20241;-15
2022/04/17 03:43:23;;;;;;;2.72;2.25;;;;;;;;;;5064089;28;20229;-15
2022/04/17 03:45:51;;;;;;;4.10;2.50;;;;;;;;;;5058374;28;20230;-16
2022/04/17 03:48:18;;;;;;;3.80;2.25;;;;;;;;;;5066664;28;20254;-16
2022/04/17 03:50:47;;;;;;;3.33;2.45;;;;;;;;;;5064816;28;20256;-16
2022/04/17 03:53:16;;;;;;;4.80;2.33;;;;;;;;;;5064195;28;20225;-16
2022/04/17 03:55:43;;;;;;;2.47;2.03;;;;;;;;;;5060863;28;21616;-16
2022/04/17 03:58:10;;;;;;;3.00;2.40;;;;;;;;;;5062010;28;20234;-16
2022/04/17 04:00:38;;;;;;;3.17;2.42;;;;;;;;;;5060759;28;20234;-15
2022/04/17 04:03:06;;;;;;;4.00;2.33;;;;;;;;;;5061465;28;20233;-15
2022/04/17 04:05:33;;;;;;;4.22;2.30;;;;;;;;;;5061765;28;20230;-16
2022/04/17 04:08:01;;;;;;;2.72;2.30;;;;;;;;;;5062947;28;20217;-16
2022/04/17 04:10:30;;;;;;;2.88;2.20;;;;;;;;;;5061531;28;21028;-16
2022/04/17 04:12:57;;;;;;;2.92;2.30;;;;;;;;;;5063064;28;20226;-15
2022/04/17 04:15:25;;;;;;;2.85;2.40;;;;;;;;;;5060755;28;20325;-15
2022/04/17 04:17:52;;;;;;;3.40;2.45;;;;;;;;;;5063653;28;20233;-16
2022/04/17 04:20:20;;;;;;;4.05;2.40;;;;;;;;;;5059943;28;20234;-15
2022/04/17 04:22:47;;;;;;;3.85;2.53;;;;;;;;;;5055694;28;20242;-15
2022/04/17 04:25:14;;;;;;;3.38;2.38;;;;;;;;;;5063380;28;20269;-15
2022/04/17 04:30:28;;;;;;;2.78;2.40;;;;;;;;;;5056391;28;20730;-17
2022/04/17 04:32:56;;;;;;;3.78;2.67;;;;;;;;;;5059450;28;20230;-17
2022/04/17 04:35:23;;;;;;;4.43;2.47;;;;;;;;;;5059407;28;20234;-17
2022/04/17 04:37:50;;;;;;;3.25;2.65;;;;;;;;;;5064012;28;20685;-15
2022/04/17 04:40:18;;;;;;;5.95;2.83;;;;;;;;;;5055985;28;20238;-17
2022/04/17 04:42:47;;;;;;;4.07;2.47;;;;;;;;;;5062278;28;20226;-17
2022/04/17 04:47:59;;;;;;;3.85;2.70;;;;;;;;;;5053435;28;20628;-15
2022/04/17 04:50:25;;;;;;;2.60;2.40;;;;;;;;;;5060525;28;20233;-15
2022/04/17 04:52:52;;;;;;;3.72;2.50;;;;;;;;;;5062961;28;20233;-17
2022/04/17 04:55:20;;;;;;;4.32;2.80;;;;;;;;;;5058600;28;20240;-15
2022/04/17 04:57:48;;;;;;;4.05;2.80;;;;;;;;;;5055657;28;20230;-15
2022/04/17 05:00:16;;;;;;;4.32;3.10;;;;;;;;;;5059070;28;20237;-16
2022/04/17 05:02:43;;;;;;;3.70;3.03;;;;;;;;;;5058763;28;20261;-17
2022/04/17 05:05:10;;;;;;;3.42;2.45;;;;;;;;;;5059653;28;20240;-16
2022/04/17 05:07:38;;;;;;;2.97;2.67;;;;;;;;;;5062688;28;20226;-16
2022/04/17 05:10:05;;;;;;;3.08;2.78;;;;;;;;;;5057967;28;20225;-15
2022/04/17 05:12:33;;;;;;;3.25;2.70;;;;;;;;;;5065316;28;20234;-15
2022/04/17 05:15:03;;;;;;;3.88;2.65;;;;;;;;;;5066344;28;20239;-17
2022/04/17 05:17:30;;;;;;;4.05;2.58;;;;;;;;;;5062938;28;20234;-17
2022/04/17 05:19:57;;;;;;;4.35;2.88;;;;;;;;;;5059909;28;20225;-17
2022/04/17 05:22:31;;;;;;;5.03;2.60;;;;;;;;;;5056620;28;20254;-17
2022/04/17 05:24:59;;;;;;;3.70;2.63;;;;;;;;;;5059656;28;21031;-17
2022/04/17 05:27:27;;;;;;;2.85;2.50;;;;;;;;;;5058516;28;20229;-17
2022/04/17 05:29:55;;;;;;;2.90;2.60;;;;;;;;;;5062202;28;20234;-17
2022/04/17 05:32:23;;;;;;;3.80;2.80;;;;;;;;;;5058798;28;20712;-17
2022/04/17 05:34:51;;;;;;;2.97;2.65;;;;;;;;;;5062815;28;20316;-17
2022/04/17 05:37:18;;;;;;;3.03;2.28;;;;;;;;;;5050912;28;21077;-17
2022/04/17 05:39:45;;;;;;;2.72;2.47;;;;;;;;;;5062661;28;20233;-17
2022/04/17 05:42:13;;;;;;;3.50;2.78;;;;;;;;;;5059267;28;20693;-16
2022/04/17 05:44:45;;;;;;;3.40;2.70;;;;;;;;;;5062352;28;20712;-17
2022/04/17 05:47:12;;;;;;;3.45;2.60;;;;;;;;;;5059773;28;20229;-17
2022/04/17 05:49:41;;;;;;;4.07;2.60;;;;;;;;;;5061181;28;20249;-17
2022/04/17 05:52:08;;;;;;;3.33;2.53;;;;;;;;;;5060495;28;20233;-17
2022/04/17 05:54:35;;;;;;;3.67;2.55;;;;;;;;;;5061131;28;20229;-17
2022/04/17 05:57:03;;;;;;;3.05;2.47;;;;;;;;;;5061046;28;20244;-17
2022/04/17 05:59:30;;;;;;;6.63;2.67;;;;;;;;;;5060084;28;20724;-17
2022/04/17 06:01:58;;;;;;;3.50;2.40;;;;;;;;;;5060266;28;20221;-17
2022/04/17 06:04:25;;;;;;;3.25;2.50;;;;;;;;;;5059418;28;20230;-17
2022/04/17 06:06:54;;;;;;;3.10;2.55;;;;;;;;;;5061635;28;20708;-17
2022/04/17 06:09:21;;;;;;;3.40;2.10;;;;;;;;;;5059134;28;20226;-17
2022/04/17 06:11:49;;;;;;;3.40;2.40;;;;;;;;;;5058406;28;20620;-17
2022/04/17 06:14:16;;;;;;;4.03;2.50;;;;;;;;;;5062147;28;20229;-17
2022/04/17 06:16:43;;;;;;;5.43;2.50;;;;;;;;;;5059717;28;20688;-17
2022/04/17 06:19:10;;;;;;;2.53;2.33;;;;;;;;;;5059657;28;20245;-17
2022/04/17 06:21:39;;;;;;;3.25;2.60;;;;;;;;;;5055840;28;20826;-17
2022/04/17 06:24:08;;;;;;;3.13;2.28;;;;;;;;;;5060715;28;20234;-17
2022/04/17 06:26:36;;;;;;;2.70;2.30;;;;;;;;;;5060580;28;20241;-17
2022/04/17 06:29:07;;;;;;;3.00;2.30;;;;;;;;;;5056037;28;20227;-17
2022/04/17 06:31:35;;;;;;;4.05;2.90;;;;;;;;;;5046464;28;20674;-17
2022/04/17 06:34:02;;;;;;;2.88;2.58;;;;;;;;;;5051764;28;20225;-17
2022/04/17 06:36:29;;;;;;;4.68;3.17;;;;;;;;;;5052100;28;20261;-17
2022/04/17 06:38:57;;;;;;;6.95;2.88;;;;;;;;;;5052682;28;20245;-17
2022/04/17 06:41:25;;;;;;;3.83;2.45;;;;;;;;;;5056705;28;20231;-17
2022/04/17 06:43:52;;;;;;;4.90;2.75;;;;;;;;;;5051150;28;20241;-17
2022/04/17 06:46:20;;;;;;;3.55;2.55;;;;;;;;;;5056900;28;20233;-17
2022/04/17 06:48:47;;;;;;;2.55;2.10;;;;;;;;;;5055000;28;20328;-17
2022/04/17 06:51:15;;;;;;;3.20;2.70;;;;;;;;;;5055720;28;20233;-17
2022/04/17 06:53:42;;;;;;;3.70;2.33;;;;;;;;;;5056421;28;20237;-17
2022/04/17 06:56:12;;;;;;;2.75;2.10;;;;;;;;;;5051544;28;20269;-17
2022/04/17 06:58:40;;;;;;;5.88;2.70;;;;;;;;;;5056127;28;20734;-17
2022/04/17 07:01:08;;;;;;;2.78;2.40;;;;;;;;;;5053778;28;20227;-17
2022/04/17 07:03:35;;;;;;;2.88;2.42;;;;;;;;;;5061230;28;20796;-17
2022/04/17 07:06:03;;;;;;;3.03;2.38;;;;;;;;;;5055982;28;20230;-17
2022/04/17 07:08:30;;;;;;;3.47;2.28;;;;;;;;;;5056289;28;20210;-17
2022/04/17 07:10:58;;;;;;;6.82;3.75;;;;;;;;;;5053387;28;20234;-17
2022/04/17 07:13:26;;;;;;;10.77;3.92;;;;;;;;;;5057176;28;20284;-17
2022/04/17 07:15:54;;;;;;;10.98;4.20;;;;;;;;;;5053272;28;21269;-17
2022/04/17 07:18:22;;;;;;;13.05;4.10;;;;;;;;;;5056352;28;20257;-17
2022/04/17 07:20:49;;;;;;;14.75;3.55;;;;;;;;;;5053726;28;20325;-17
2022/04/17 07:23:16;;;;;;;6.80;2.97;;;;;;;;;;5057706;28;20709;-17
2022/04/17 07:25:44;;;;;;;5.60;3.45;;;;;;;;;;5056603;28;20236;-17
2022/04/17 07:28:13;;;;;;;6.13;3.08;;;;;;;;;;5057476;28;20237;-17
2022/04/17 07:30:43;;;;;;;4.47;3.13;;;;;;;;;;5054830;28;20238;-17
2022/04/17 07:33:12;;;;;;;5.55;3.08;;;;;;;;;;5053373;28;20662;-17
2022/04/17 07:35:39;;;;;;;8.20;2.92;;;;;;;;;;5057322;28;20232;-17
2022/04/17 07:38:06;;;;;;;5.90;2.95;;;;;;;;;;5061231;28;20246;-17
2022/04/17 07:40:34;;;;;;;4.63;2.85;;;;;;;;;;5057665;28;20736;-17
2022/04/17 07:43:02;;;;;;;3.45;2.35;;;;;;;;;;5057583;28;20713;-17
2022/04/17 07:45:30;;;;;;;5.45;2.70;;;;;;;;;;5055340;28;20241;-17
2022/04/17 07:47:57;;;;;;;6.65;2.50;;;;;;;;;;5055987;28;20238;-17
2022/04/17 07:50:26;;;;;;;7.50;2.50;;;;;;;;;;5055636;28;20234;-17
2022/04/17 07:52:53;;;;;;;8.02;2.85;;;;;;;;;;5054626;28;20240;-17
2022/04/17 07:55:21;;;;;;;14.38;3.08;;;;;;;;;;5056337;28;20226;-17
2022/04/17 07:57:55;;;;;;;15.07;3.35;;;;;;;;;;5058348;28;20705;-17
2022/04/17 08:00:23;;;;;;;17.98;2.90;;;;;;;;;;5047589;28;20228;-15
2022/04/17 08:03:09;;;;;;;12.07;3.40;;;;;;;;;;5051563;28;20245;-15
2022/04/17 08:05:38;;;;;;;5.35;2.65;;;;;;;;;;5051540;28;20238;-15
2022/04/17 08:08:06;;;;;;;12.05;2.90;;;;;;;;;;5053278;28;20443;-15
2022/04/17 08:10:33;;;;;;;6.32;2.50;;;;;;;;;;5059652;28;20328;-16
2022/04/17 08:13:01;;;;;;;10.35;2.95;;;;;;;;;;5054376;28;20226;-16
2022/04/17 08:15:28;;;;;;;8.02;2.30;;;;;;;;;;5056583;28;20230;-17
2022/04/17 08:17:56;;;;;;;6.60;2.90;;;;;;;;;;5052420;28;20253;-17
2022/04/17 08:20:23;;;;;;;8.15;2.42;;;;;;;;;;5051239;28;20364;-17
2022/04/17 08:22:52;;;;;;;15.00;2.75;;;;;;;;;;5048694;28;21263;-17
2022/04/17 08:25:19;;;;;;;16.77;2.92;;;;;;;;;;5053994;28;20413;-17
2022/04/17 08:27:46;;;;;;;11.23;3.03;;;;;;;;;;5051434;28;20230;-17
2022/04/17 08:30:14;;;;;;;12.80;2.85;;;;;;;;;;5055275;28;20237;-17
2022/04/17 08:32:42;;;;;;;10.18;2.30;;;;;;;;;;5059771;28;20311;-17
2022/04/17 08:35:10;;;;;;;9.98;2.45;;;;;;;;;;5049431;28;20240;-17
2022/04/17 08:37:37;;;;;;;5.45;2.70;;;;;;;;;;5055381;28;20994;-17
2022/04/17 08:40:07;;;;;;;22.73;3.15;;;;;;;;;;5055869;28;20233;-17
2022/04/17 08:42:34;;;;;;;15.85;3.00;;;;;;;;;;5057374;28;21553;-17
2022/04/17 08:45:01;;;;;;;9.75;2.88;;;;;;;;;;5057845;28;20240;-15
2022/04/17 08:47:29;;;;;;;15.05;2.90;;;;;;;;;;5054655;28;20230;-17
2022/04/17 08:49:56;;;;;;;18.92;3.40;;;;;;;;;;5054685;28;21137;-17
2022/04/17 08:52:23;;;;;;;10.68;3.13;;;;;;;;;;5053185;28;20611;-17
2022/04/17 08:54:50;;;;;;;14.15;2.55;;;;;;;;;;5050763;28;20242;-17
2022/04/17 08:57:21;;;;;;;11.02;3.20;;;;;;;;;;5046103;28;20252;-16
2022/04/17 08:59:49;;;;;;;10.32;2.60;;;;;;;;;;5046756;28;20230;-17
2022/04/17 09:02:18;;;;;;;12.60;2.90;;;;;;;;;;5045102;28;20445;-17
2022/04/17 09:04:46;;;;;;;21.90;2.92;;;;;;;;;;5047749;28;20233;-17
2022/04/17 09:07:13;;;;;;;6.70;2.95;;;;;;;;;;5043367;28;20888;-18
2022/04/17 09:09:41;;;;;;;15.93;3.00;;;;;;;;;;5046128;28;20419;-17
2022/04/17 09:12:09;;;;;;;8.30;2.60;;;;;;;;;;5046281;28;20234;-17
2022/04/17 09:14:41;;;;;;;11.10;2.90;;;;;;;;;;5048524;28;20240;-17
2022/04/17 09:17:09;;;;;;;7.75;2.90;;;;;;;;;;5044535;28;20241;-17
2022/04/17 09:19:36;;;;;;;7.60;2.92;;;;;;;;;;5048242;28;20249;-17
2022/04/17 09:22:05;;;;;;;11.25;2.55;;;;;;;;;;5046600;28;20246;-17
2022/04/17 09:24:35;;;;;;;20.93;3.33;;;;;;;;;;5044761;28;20446;-17
2022/04/17 09:27:02;;;;;;;7.15;2.50;;;;;;;;;;4994470;22;20436;-17
2022/04/17 09:29:32;;;;;;;6.25;2.78;;;;;;;;;;5063044;28;20413;-17
2022/04/17 09:32:02;;;;;;;4.40;2.53;;;;;;;;;;5063027;28;20238;-18
2022/04/17 09:34:30;;;;;;;6.35;2.63;;;;;;;;;;5064560;28;20230;-18
2022/04/17 09:36:58;;;;;;;4.60;2.53;;;;;;;;;;5061709;28;20238;-19
2022/04/17 09:39:31;;;;;;;6.40;3.10;;;;;;;;;;5062636;28;20238;-18
2022/04/17 09:41:59;;;;;;;4.28;2.17;;;;;;;;;;5061031;28;20244;-17
2022/04/17 09:44:39;;;;;;;3.83;2.42;;;;;;;;;;5059793;28;20230;-18
2022/04/17 09:47:12;;;;;;;8.35;2.20;;;;;;;;;;5062147;28;20336;-18
2022/04/17 09:49:52;;;;;;;10.50;3.63;;;;;;;;;;5066023;28;20356;-18
2022/04/17 09:52:19;;;;;;;8.48;2.65;;;;;;;;;;5059597;28;20236;-18
2022/04/17 09:54:47;;;;;;;5.97;2.55;;;;;;;;;;5066197;28;20236;-18
2022/04/17 09:57:18;;;;;;;3.50;2.33;;;;;;;;;;5060566;28;20234;-18
2022/04/17 09:59:45;;;;;;;7.85;2.58;;;;;;;;;;5066532;28;20444;-18
2022/04/17 10:02:14;;;;;;;4.55;2.00;;;;;;;;;;5058976;28;20291;-18
2022/04/17 10:04:42;;;;;;;12.18;2.45;;;;;;;;;;5061658;28;20442;-18
2022/04/17 10:07:10;;;;;;;9.60;2.92;;;;;;;;;;5061102;28;20226;-18
2022/04/17 10:09:37;;;;;;;6.00;2.47;;;;;;;;;;5061877;28;20213;-18
2022/04/17 10:12:05;;;;;;;3.72;2.33;;;;;;;;;;5058689;28;20237;-17
2022/04/17 10:14:33;;;;;;;8.18;2.60;;;;;;;;;;5066899;28;20230;-18
2022/04/17 10:17:00;;;;;;;8.30;2.45;;;;;;;;;;5065446;28;20229;-18
2022/04/17 10:19:29;;;;;;;5.55;2.85;;;;;;;;;;5065101;28;20237;-18
2022/04/17 10:21:58;;;;;;;4.72;2.58;;;;;;;;;;5062961;28;20292;-16
2022/04/17 10:24:25;;;;;;;5.32;2.75;;;;;;;;;;5065389;28;20245;-18
2022/04/17 10:26:53;;;;;;;7.95;2.60;;;;;;;;;;5063904;28;20234;-18
2022/04/17 10:29:22;;;;;;;4.15;2.50;;;;;;;;;;5067581;28;20233;-18
2022/04/17 10:31:59;;;;;;;3.28;2.30;;;;;;;;;;5066438;28;20371;-18
2022/04/17 10:34:48;;;;;;;5.00;2.50;;;;;;;;;;5064978;28;20237;-18
2022/04/17 10:37:22;;;;;;;5.53;2.42;;;;;;;;;;5062034;28;20631;-18
2022/04/17 10:39:50;;;;;;;9.07;2.80;;;;;;;;;;5065586;28;20244;-18
2022/04/17 10:42:17;;;;;;;5.72;2.50;;;;;;;;;;5063696;28;20229;-18
2022/04/17 10:44:45;;;;;;;4.38;2.80;;;;;;;;;;5065727;28;20230;-18
2022/04/17 10:47:20;;;;;;;4.70;2.13;;;;;;;;;;5064492;28;20312;-18
2022/04/17 10:49:53;;;;;;;10.15;3.03;;;;;;;;;;5063187;28;20210;-18
2022/04/17 10:52:29;;;;;;;10.23;2.70;;;;;;;;;;5068770;28;20234;-18
2022/04/17 10:54:56;;;;;;;11.95;2.90;;;;;;;;;;5060232;28;20257;-18
2022/04/17 10:57:25;;;;;;;9.73;3.15;;;;;;;;;;5065032;28;20417;-18
2022/04/17 11:00:07;;;;;;;13.23;2.80;;;;;;;;;;5062214;28;20724;-18
2022/04/17 11:02:34;;;;;;;7.07;3.17;;;;;;;;;;5063176;28;20229;-18
2022/04/17 11:05:04;;;;;;;8.40;2.70;;;;;;;;;;5059002;28;20225;-18
2022/04/17 11:07:32;;;;;;;7.93;3.00;;;;;;;;;;5066861;28;20237;-17
2022/04/17 11:10:07;;;;;;;6.57;2.88;;;;;;;;;;5065986;28;20214;-18
2022/04/17 11:12:47;;;;;;;8.65;3.42;;;;;;;;;;5061992;28;21055;-18
2022/04/17 11:15:21;;;;;;;13.68;2.90;;;;;;;;;;5062831;28;20651;-18
2022/04/17 11:17:49;;;;;;;4.93;2.78;;;;;;;;;;5062166;28;20411;-18
2022/04/17 11:20:17;;;;;;;3.17;2.20;;;;;;;;;;5064646;28;20237;-18
2022/04/17 11:22:45;;;;;;;7.05;2.47;;;;;;;;;;5061121;28;20233;-18
2022/04/17 11:25:13;;;;;;;6.90;2.90;;;;;;;;;;5064434;28;20225;-18
2022/04/17 11:27:41;;;;;;;4.15;2.25;;;;;;;;;;5061057;28;20234;-18
2022/04/17 11:30:30;;;;;;;7.15;2.58;;;;;;;;;;5065987;28;20244;-17
2022/04/17 11:32:58;;;;;;;7.93;2.10;;;;;;;;;;5061888;28;20359;-17
2022/04/17 11:35:25;;;;;;;3.67;2.22;;;;;;;;;;5063408;28;20230;-16
2022/04/17 11:37:55;;;;;;;4.28;1.95;;;;;;;;;;5061593;28;20225;-17
2022/04/17 11:40:23;;;;;;;3.90;1.80;;;;;;;;;;5067024;28;20229;-18
2022/04/17 11:42:51;;;;;;;5.75;2.15;;;;;;;;;;5066574;28;21005;-16
2022/04/17 11:45:18;;;;;;;6.82;2.15;;;;;;;;;;5062467;28;20226;-18
2022/04/17 11:47:47;;;;;;;7.45;2.20;;;;;;;;;;5060071;28;20238;-18
2022/04/17 11:50:19;;;;;;;2.63;2.03;;;;;;;;;;5059810;28;20237;-16
2022/04/17 11:52:48;;;;;;;4.18;2.17;;;;;;;;;;5067070;28;20257;-16
2022/04/17 11:55:17;;;;;;;5.10;2.15;;;;;;;;;;5062834;28;20696;-18
2022/04/17 11:57:44;;;;;;;6.78;2.15;;;;;;;;;;5061196;28;20225;-18
2022/04/17 12:00:12;;;;;;;4.20;2.30;;;;;;;;;;5066464;28;20252;-17
2022/04/17 12:02:40;;;;;;;6.20;1.90;;;;;;;;;;5064472;28;20241;-17
2022/04/17 12:05:08;;;;;;;4.70;2.00;;;;;;;;;;5063300;28;20237;-18
2022/04/17 12:07:35;;;;;;;3.92;2.20;;;;;;;;;;5059857;28;20324;-18
2022/04/17 12:10:04;;;;;;;4.78;2.17;;;;;;;;;;5065311;28;20225;-18
2022/04/17 12:12:34;;;;;;;5.00;1.80;;;;;;;;;;5065802;28;20229;-18
2022/04/17 12:15:03;;;;;;;2.85;1.73;;;;;;;;;;5060916;28;20230;-16
2022/04/17 12:17:31;;;;;;;3.03;1.67;;;;;;;;;;5060578;28;20248;-18
2022/04/17 12:19:58;;;;;;;3.38;1.70;;;;;;;;;;5062589;28;20267;-18
2022/04/17 12:22:26;;;;;;;4.93;1.50;;;;;;;;;;5060604;28;20724;-18
2022/04/17 12:24:53;;;;;;;3.55;1.70;;;;;;;;;;5065894;28;20225;-18
2022/04/17 12:27:20;;;;;;;2.42;1.88;;;;;;;;;;5059338;28;20248;-18
2022/04/17 12:29:49;;;;;;;3.65;1.90;;;;;;;;;;5059837;28;20728;-18
2022/04/17 12:32:17;;;;;;;4.15;1.55;;;;;;;;;;5063139;28;20987;-16
2022/04/17 12:34:45;;;;;;;2.55;1.63;;;;;;;;;;5062562;28;20994;-18
2022/04/17 12:37:22;;;;;;;6.32;2.10;;;;;;;;;;5063486;28;20623;-18
2022/04/17 12:39:49;;;;;;;6.25;1.80;;;;;;;;;;5062037;28;20232;-16
2022/04/17 12:42:17;;;;;;;2.67;1.60;;;;;;;;;;5061563;28;20221;-16
2022/04/17 12:44:44;;;;;;;2.35;1.70;;;;;;;;;;5062773;28;20815;-18
2022/04/17 12:47:13;;;;;;;11.32;1.70;;;;;;;;;;5066083;28;20237;-18
2022/04/17 12:49:40;;;;;;;2.35;1.98;;;;;;;;;;5060653;28;20330;-18
2022/04/17 12:52:08;;;;;;;2.38;1.52;;;;;;;;;;5062773;28;20740;-18
2022/04/17 12:54:35;;;;;;;2.22;1.70;;;;;;;;;;5059860;28;20621;-18
2022/04/17 12:57:03;;;;;;;3.40;1.88;;;;;;;;;;5059408;28;20240;-16
2022/04/17 12:59:40;;;;;;;2.08;1.70;;;;;;;;;;5062308;28;20237;-16
2022/04/17 13:02:15;;;;;;;2.13;1.60;;;;;;;;;;5059739;28;20230;-18
2022/04/17 13:04:43;;;;;;;3.08;1.90;;;;;;;;;;5062249;28;20244;-18
2022/04/17 13:07:11;;;;;;;1.73;1.48;;;;;;;;;;5059540;28;20244;-16
2022/04/17 13:09:38;;;;;;;2.35;1.60;;;;;;;;;;5062045;28;20229;-18
2022/04/17 13:12:07;;;;;;;3.47;1.50;;;;;;;;;;5063754;28;20360;-18
2022/04/17 13:14:35;;;;;;;2.88;1.77;;;;;;;;;;5059630;28;20277;-15
2022/04/17 13:17:02;;;;;;;2.65;1.40;;;;;;;;;;5063094;28;20225;-16
2022/04/17 13:19:31;;;;;;;2.28;1.70;;;;;;;;;;5062258;28;20325;-18
2022/04/17 13:21:58;;;;;;;2.45;1.60;;;;;;;;;;5062383;28;20239;-17
2022/04/17 13:24:26;;;;;;;3.22;1.70;;;;;;;;;;5062401;28;20229;-18
2022/04/17 13:26:53;;;;;;;2.92;1.40;;;;;;;;;;5060110;28;20242;-17
2022/04/17 13:29:21;;;;;;;1.73;1.42;;;;;;;;;;5064040;28;20839;-18
2022/04/17 13:31:49;;;;;;;4.25;1.50;;;;;;;;;;5064024;28;21498;-18
2022/04/17 13:34:18;;;;;;;3.05;1.50;;;;;;;;;;5059981;28;20242;-18
2022/04/17 13:36:46;;;;;;;4.47;1.80;;;;;;;;;;5061335;28;20271;-18
2022/04/17 13:39:15;;;;;;;2.17;1.30;;;;;;;;;;5060398;28;20624;-18
2022/04/17 13:41:43;;;;;;;3.28;1.60;;;;;;;;;;5061612;28;20237;-18
2022/04/17 13:44:11;;;;;;;3.35;1.80;;;;;;;;;;5063967;28;20229;-18
2022/04/17 13:46:40;;;;;;;2.83;1.38;;;;;;;;;;5059484;28;20238;-18
2022/04/17 13:49:07;;;;;;;2.40;1.60;;;;;;;;;;5065345;28;20712;-18
2022/04/17 13:51:35;;;;;;;1.95;1.27;;;;;;;;;;5065177;28;20233;-18
2022/04/17 13:54:03;;;;;;;2.15;1.30;;;;;;;;;;5062260;28;21046;-18
2022/04/17 13:56:31;;;;;;;2.30;1.50;;;;;;;;;;5062024;28;20230;-18
2022/04/17 13:58:58;;;;;;;2.63;1.88;;;;;;;;;;5064112;28;20774;-18
2022/04/17 14:01:25;;;;;;;1.30;1.20;;;;;;;;;;5066024;28;20238;-18
2022/04/17 14:03:53;;;;;;;3.05;1.67;;;;;;;;;;5065247;28;20226;-18
2022/04/17 14:06:20;;;;;;;2.90;1.50;;;;;;;;;;5063644;28;20240;-18
2022/04/17 14:08:49;;;;;;;2.03;1.48;;;;;;;;;;5062446;28;20235;-18
2022/04/17 14:11:17;;;;;;;2.45;1.60;;;;;;;;;;5062438;28;20230;-18
2022/04/17 14:13:45;;;;;;;2.58;1.40;;;;;;;;;;5066392;28;20230;-18
2022/04/17 14:16:12;;;;;;;1.65;1.15;;;;;;;;;;5069257;28;20226;-18
2022/04/17 14:18:39;;;;;;;3.72;1.58;;;;;;;;;;5061784;28;20317;-18
2022/04/17 14:21:07;;;;;;;3.72;1.60;;;;;;;;;;5064938;28;21094;-18
2022/04/17 14:23:34;;;;;;;2.15;1.30;;;;;;;;;;5061892;28;20242;-18
2022/04/17 14:26:01;;;;;;;1.90;1.52;;;;;;;;;;5062163;28;21043;-18
2022/04/17 14:28:30;;;;;;;2.55;1.45;;;;;;;;;;5064995;28;20237;-18
2022/04/17 14:30:57;;;;;;;2.30;1.17;;;;;;;;;;5062866;28;20713;-18
2022/04/17 14:33:24;;;;;;;2.28;1.30;;;;;;;;;;5062806;28;20242;-18
2022/04/17 14:35:57;;;;;;;2.50;1.20;;;;;;;;;;5067631;28;20233;-18
2022/04/17 14:38:24;;;;;;;3.70;1.33;;;;;;;;;;5064991;28;20256;-18
2022/04/17 14:40:52;;;;;;;4.57;1.13;;;;;;;;;;5061207;28;20281;-18
2022/04/17 14:43:19;;;;;;;1.80;1.52;;;;;;;;;;5065338;28;20242;-18
2022/04/17 14:45:48;;;;;;;2.15;1.48;;;;;;;;;;5068287;28;20774;-18
2022/04/17 14:48:16;;;;;;;1.73;1.45;;;;;;;;;;5062052;28;20234;-18
2022/04/17 14:50:43;;;;;;;1.85;1.17;;;;;;;;;;5061214;28;20219;-18
2022/04/17 14:53:11;;;;;;;2.05;1.33;;;;;;;;;;5065007;28;20264;-18
2022/04/17 14:55:39;;;;;;;2.55;1.27;;;;;;;;;;5064691;28;20229;-18
2022/04/17 14:58:06;;;;;;;1.40;1.17;;;;;;;;;;5061258;28;20230;-18
2022/04/17 15:00:33;;;;;;;2.30;1.40;;;;;;;;;;5060222;28;20242;-18